Time;durP1;ratioP1;P1;durP2;ratioP2;P2;SDS_P1;SDS_P2;PMS_P1;PMS_P2;Temp;Humidity;BMP_temperature;BMP_pressure;BME280_temperature;BME280_humidity;BME280_pressure;Samples;Min_cycle;Max_cycle;Signal;HPM_P1;HPM_P2
2023/06/15 00:00:56;;;;;;;;;;;;;;;16.12;61.13;101523.15;106763;1260;124683;-83
2023/06/15 00:04:02;;;;;;;;;;;;;;;16.14;61.17;101521.57;107132;1261;74753;-84
2023/06/15 00:06:35;;;;;;;;;;;;;;;16.16;61.13;101521.77;107149;1260;124699;-84
2023/06/15 00:09:09;;;;;;;;;;;;;;;16.18;61.23;101521.61;106790;1260;70976;-84
2023/06/15 00:11:37;;;;;;;;;;;;;;;16.18;61.23;101518.63;106860;1260;61238;-85
2023/06/15 00:14:05;;;;;;;;;;;;;;;16.20;61.19;101518.81;106895;1260;61294;-86
2023/06/15 00:16:41;;;;;;;;;;;;;;;16.21;61.22;101517.25;107019;1261;73525;-86
2023/06/15 00:19:23;;;;;;;;;;;;;;;16.23;61.19;101519.23;106754;1260;125031;-85
2023/06/15 00:21:53;;;;;;;;;;;;;;;16.25;61.20;101520.31;106874;1260;71330;-84
2023/06/15 00:24:19;;;;;;;;;;;;;;;16.28;61.21;101523.01;106661;1261;125439;-84
2023/06/15 00:26:48;;;;;;;;;;;;;;;16.32;61.31;101522.36;106979;1260;60135;-85
2023/06/15 00:29:14;;;;;;;;;;;;;;;16.36;61.18;101527.37;106804;1264;75262;-84
2023/06/15 00:31:40;;;;;;;;;;;;;;;16.40;61.18;101529.73;106665;1260;125480;-85
2023/06/15 00:34:13;;;;;;;;;;;;;;;16.44;61.19;101529.27;106776;1260;61455;-85
2023/06/15 00:36:39;;;;;;;;;;;;;;;16.49;61.05;101523.83;106587;1260;124979;-85
2023/06/15 00:39:18;;;;;;;;;;;;;;;16.51;60.99;101520.33;106779;1260;61229;-84
2023/06/15 00:41:44;;;;;;;;;;;;;;;16.53;60.96;101521.58;106810;1261;125594;-84
2023/06/15 00:44:26;;;;;;;;;;;;;;;16.53;60.94;101523.52;106977;1260;61362;-84
2023/06/15 00:47:05;;;;;;;;;;;;;;;16.49;60.92;101518.34;106784;1263;72792;-84
2023/06/15 00:49:31;;;;;;;;;;;;;;;16.48;60.87;101513.90;106639;1261;124851;-86
2023/06/15 00:51:59;;;;;;;;;;;;;;;16.46;60.96;101516.34;106671;1260;60000;-85
2023/06/15 00:54:26;;;;;;;;;;;;;;;16.45;60.99;101515.63;106731;1263;124311;-85
2023/06/15 00:57:08;;;;;;;;;;;;;;;16.44;61.02;101512.23;107025;1260;61794;-86
2023/06/15 00:59:39;;;;;;;;;;;;;;;16.43;61.07;101510.46;107022;1260;73571;-85
2023/06/15 01:02:05;;;;;;;;;;;;;;;16.41;61.05;101509.02;106983;1262;61856;-85
2023/06/15 01:04:50;;;;;;;;;;;;;;;16.38;61.06;101510.58;107034;1260;59819;-85
2023/06/15 01:07:16;;;;;;;;;;;;;;;16.33;61.29;101507.15;106674;1260;124508;-85
2023/06/15 01:09:44;;;;;;;;;;;;;;;16.30;61.45;101510.10;106774;1260;61175;-86
2023/06/15 01:12:19;;;;;;;;;;;;;;;16.30;61.75;101513.65;106700;1260;124624;-84
2023/06/15 01:14:45;;;;;;;;;;;;;;;16.30;62.07;101512.59;106922;1260;61263;-85
2023/06/15 01:17:23;;;;;;;;;;;;;;;16.27;62.29;101512.20;106673;1261;61364;-84
2023/06/15 01:19:57;;;;;;;;;;;;;;;16.22;62.47;101509.13;106640;1260;124774;-85
2023/06/15 01:22:34;;;;;;;;;;;;;;;16.18;62.59;101503.40;106929;1260;65729;-85
2023/06/15 01:25:08;;;;;;;;;;;;;;;16.13;62.82;101502.62;106935;1260;125153;-85
2023/06/15 01:27:35;;;;;;;;;;;;;;;16.08;62.95;101504.32;106883;1260;62218;-84
2023/06/15 01:30:04;;;;;;;;;;;;;;;16.03;63.17;101506.02;107164;1260;60485;-84
2023/06/15 01:32:31;;;;;;;;;;;;;;;15.99;63.38;101509.67;107061;1260;74519;-85
2023/06/15 01:35:04;;;;;;;;;;;;;;;15.98;63.57;101508.60;106876;1261;65824;-83
2023/06/15 01:37:31;;;;;;;;;;;;;;;15.97;63.68;101505.91;106961;1260;72624;-84
2023/06/15 01:40:05;;;;;;;;;;;;;;;15.97;63.86;101500.78;106728;1260;61391;-84
2023/06/15 01:42:33;;;;;;;;;;;;;;;15.98;64.01;101504.69;106761;1260;125442;-84
2023/06/15 01:44:59;;;;;;;;;;;;;;;15.98;64.12;101503.12;106945;1261;74562;-86
2023/06/15 01:47:26;;;;;;;;;;;;;;;15.99;64.21;101505.08;107050;1261;61411;-85
2023/06/15 01:49:54;;;;;;;;;;;;;;;16.01;64.29;101503.34;106898;1260;124989;-86
2023/06/15 01:52:28;;;;;;;;;;;;;;;16.02;64.50;101498.56;106740;1260;59385;-86
2023/06/15 01:55:08;;;;;;;;;;;;;;;16.03;64.62;101501.95;106813;1260;124604;-85
2023/06/15 01:57:38;;;;;;;;;;;;;;;16.04;64.71;101498.77;107369;1261;73497;-84
2023/06/15 02:00:13;;;;;;;;;;;;;;;16.05;64.87;101497.02;107404;1260;124623;-85
2023/06/15 02:02:45;;;;;;;;;;;;;;;16.05;65.27;101495.25;107322;1262;72357;-85
2023/06/15 02:05:13;;;;;;;;;;;;;;;16.04;65.62;101486.55;107422;1260;59519;-84
2023/06/15 02:07:46;;;;;;;;;;;;;;;16.04;65.94;101486.91;106833;1260;125330;-85
2023/06/15 02:10:13;;;;;;;;;;;;;;;16.02;66.19;101481.21;106807;1262;73445;-85
2023/06/15 02:12:41;;;;;;;;;;;;;;;16.00;66.62;101479.95;106816;1260;124629;-86
2023/06/15 02:15:14;;;;;;;;;;;;;;;16.00;66.99;101477.98;106886;1260;71369;-86
2023/06/15 02:17:41;;;;;;;;;;;;;;;15.99;67.32;101473.03;106954;1261;61099;-86
2023/06/15 02:20:08;;;;;;;;;;;;;;;15.99;67.54;101477.98;106886;1260;124804;-86
2023/06/15 02:22:41;;;;;;;;;;;;;;;15.96;67.79;101478.83;106930;1264;74347;-84
2023/06/15 02:25:08;;;;;;;;;;;;;;;15.94;68.01;101478.09;106997;1260;125384;-85
2023/06/15 02:27:40;;;;;;;;;;;;;;;15.89;68.25;101474.30;106899;1260;72709;-84
2023/06/15 02:30:06;;;;;;;;;;;;;;;15.85;68.57;101475.66;106944;1260;125445;-84
2023/06/15 02:32:53;;;;;;;;;;;;;;;15.85;68.82;101476.36;106764;1261;62189;-85
2023/06/15 02:35:20;;;;;;;;;;;;;;;15.85;69.06;101480.09;106797;1260;73433;-85
2023/06/15 02:37:56;;;;;;;;;;;;;;;15.86;69.35;101485.58;106933;1260;125315;-85
2023/06/15 02:40:22;;;;;;;;;;;;;;;15.87;69.55;101488.08;107139;1260;71401;-85
2023/06/15 02:42:52;;;;;;;;;;;;;;;15.89;69.72;101485.64;106966;1261;125175;-85
2023/06/15 02:45:20;;;;;;;;;;;;;;;15.93;69.91;101487.64;107103;1264;60939;-85
2023/06/15 02:48:09;;;;;;;;;;;;;;;15.97;70.00;101487.87;106863;1260;74631;-86
2023/06/15 02:50:45;;;;;;;;;;;;;;;16.03;70.15;101486.37;106846;1260;66892;-86
2023/06/15 02:53:14;;;;;;;;;;;;;;;16.11;70.31;101477.80;106871;1260;73194;-85
2023/06/15 02:55:56;;;;;;;;;;;;;;;16.18;70.32;101475.59;106702;1260;125542;-85
2023/06/15 02:58:26;;;;;;;;;;;;;;;16.23;70.51;101484.52;106822;1262;61272;-85
2023/06/15 03:01:00;;;;;;;;;;;;;;;16.32;70.58;101489.41;106813;1261;125062;-86
2023/06/15 03:03:40;;;;;;;;;;;;;;;16.44;70.73;101495.59;106705;1264;67133;-86
2023/06/15 03:06:09;;;;;;;;;;;;;;;16.57;70.67;101501.60;106509;1261;125200;-86
2023/06/15 03:08:55;;;;;;;;;;;;;;;16.69;70.77;101499.61;106843;1260;60361;-87
2023/06/15 03:11:34;;;;;;;;;;;;;;;16.80;70.66;101494.08;106913;1261;61250;-87
2023/06/15 03:14:10;;;;;;;;;;;;;;;16.87;70.64;101496.14;106493;1261;125398;-86
2023/06/15 03:16:47;;;;;;;;;;;;;;;16.94;70.50;101496.92;106662;1260;67187;-86
2023/06/15 03:19:25;;;;;;;;;;;;;;;17.01;70.40;101502.13;106808;1261;125169;-85
2023/06/15 03:22:01;;;;;;;;;;;;;;;17.05;70.30;101508.56;106975;1261;61275;-84
2023/06/15 03:24:30;;;;;;;;;;;;;;;17.08;70.35;101512.67;106692;1260;125954;-84
2023/06/15 03:27:22;;;;;;;;;;;;;;;17.09;70.32;101517.83;106750;1263;74812;-85
2023/06/15 03:29:56;;;;;;;;;;;;;;;17.09;70.47;101519.61;106751;1260;65985;-84
2023/06/15 03:32:39;;;;;;;;;;;;;;;17.09;70.41;101517.83;106831;1260;72926;-84
2023/06/15 03:35:21;;;;;;;;;;;;;;;17.08;70.32;101514.64;106722;1266;60042;-84
2023/06/15 03:37:49;;;;;;;;;;;;;;;17.06;70.14;101514.06;106676;1260;125885;-84
2023/06/15 03:40:15;;;;;;;;;;;;;;;17.04;70.22;101515.64;106895;1260;74580;-84
2023/06/15 03:42:43;;;;;;;;;;;;;;;16.99;70.20;101513.98;106771;1260;125061;-84
2023/06/15 03:45:09;;;;;;;;;;;;;;;16.99;70.16;101524.11;106836;1261;72624;-84
2023/06/15 03:47:36;;;;;;;;;;;;;;;16.98;70.23;101526.21;106918;1260;62164;-84
2023/06/15 03:50:06;;;;;;;;;;;;;;;16.98;70.30;101530.11;106773;1266;126048;-84
2023/06/15 03:52:54;;;;;;;;;;;;;;;16.96;70.37;101530.10;106815;1260;74766;-86
2023/06/15 03:55:27;;;;;;;;;;;;;;;16.94;70.40;101528.46;106872;1260;125116;-86
2023/06/15 03:57:55;;;;;;;;;;;;;;;16.91;70.54;101527.91;106736;1260;70251;-87
2023/06/15 04:00:21;;;;;;;;;;;;;;;16.88;70.71;101525.77;106931;1260;125734;-86
2023/06/15 04:02:48;;;;;;;;;;;;;;;16.87;70.83;101528.39;107204;1260;62058;-82
2023/06/15 04:05:19;;;;;;;;;;;;;;;16.85;70.98;101524.66;107279;1260;60550;-86
2023/06/15 04:07:49;;;;;;;;;;;;;;;16.85;71.12;101528.73;107021;1261;125162;-89
2023/06/15 04:10:28;;;;;;;;;;;;;;;16.87;71.33;101523.27;106923;1260;72562;-85
2023/06/15 04:12:56;;;;;;;;;;;;;;;16.91;71.41;101521.16;106803;1264;125112;-85
2023/06/15 04:15:43;;;;;;;;;;;;;;;16.93;71.34;101514.11;107119;1261;61366;-86
2023/06/15 04:18:09;;;;;;;;;;;;;;;16.97;71.42;101512.02;106911;1262;125847;-91
2023/06/15 04:20:38;;;;;;;;;;;;;;;17.00;71.51;101509.04;106958;1262;65029;-86
2023/06/15 04:23:05;;;;;;;;;;;;;;;17.02;71.41;101513.14;106827;1262;71861;-85
2023/06/15 04:25:35;;;;;;;;;;;;;;;17.02;71.35;101513.48;106825;1260;125460;-86
2023/06/15 04:28:05;;;;;;;;;;;;;;;17.03;71.46;101512.79;106913;1260;60486;-86
2023/06/15 04:30:50;;;;;;;;;;;;;;;17.07;71.43;101508.40;106925;1260;125178;-88
2023/06/15 04:33:23;;;;;;;;;;;;;;;17.10;71.34;101508.44;107092;1260;65986;-87
2023/06/15 04:35:50;;;;;;;;;;;;;;;17.12;71.08;101512.87;107053;1260;71399;-87
2023/06/15 04:38:23;;;;;;;;;;;;;;;17.11;70.94;101518.20;107056;1260;124781;-84
2023/06/15 04:40:52;;;;;;;;;;;;;;;17.09;70.69;101516.59;107178;1261;60943;-84
2023/06/15 04:43:20;;;;;;;;;;;;;;;17.07;70.71;101517.80;106921;1260;124236;-83
2023/06/15 04:45:47;;;;;;;;;;;;;;;17.03;70.54;101525.22;107056;1261;67124;-84
2023/06/15 04:48:17;;;;;;;;;;;;;;;17.00;70.64;101526.95;106953;1261;124893;-83
2023/06/15 04:50:56;;;;;;;;;;;;;;;16.98;70.64;101522.13;107084;1261;61945;-89
2023/06/15 04:53:22;;;;;;;;;;;;;;;16.95;70.72;101518.38;107119;1260;61227;-84
2023/06/15 04:55:51;;;;;;;;;;;;;;;16.92;70.83;101502.20;106903;1260;124809;-84
2023/06/15 04:58:25;;;;;;;;;;;;;;;16.91;71.03;101492.98;106833;1260;66989;-84
2023/06/15 05:00:54;;;;;;;;;;;;;;;16.91;70.94;101486.95;106966;1260;71338;-84
2023/06/15 05:03:20;;;;;;;;;;;;;;;16.91;71.03;101482.88;107087;1260;62138;-85
2023/06/15 05:05:46;;;;;;;;;;;;;;;16.91;71.05;101489.80;106888;1260;60043;-86
2023/06/15 05:11:44;;;;;;;;;;;;;;;16.93;71.08;101489.64;106682;1260;68271;-87
2023/06/15 05:14:10;;;;;;;;;;;;;;;16.97;71.27;101495.89;106913;1260;124667;-88
2023/06/15 05:16:45;;;;;;;;;;;;;;;17.01;71.24;101496.98;107229;1260;61211;-88
2023/06/15 05:19:16;;;;;;;;;;;;;;;17.04;71.25;101499.33;107659;1260;124463;-84
2023/06/15 05:21:44;;;;;;;;;;;;;;;17.06;71.06;101496.69;107016;1261;73285;-84
2023/06/15 05:24:16;;;;;;;;;;;;;;;17.03;70.99;101489.21;106865;1260;124499;-87
2023/06/15 05:26:51;;;;;;;;;;;;;;;16.98;70.88;101492.88;107164;1261;73070;-90
2023/06/15 05:29:33;;;;;;;;;;;;;;;16.92;70.96;101494.06;107198;1261;61311;-88
2023/06/15 05:32:11;;;;;;;;;;;;;;;16.90;70.99;101501.48;107259;1260;125127;-88
2023/06/15 05:34:49;;;;;;;;;;;;;;;16.89;71.05;101503.60;106922;1260;74126;-87
2023/06/15 05:37:35;;;;;;;;;;;;;;;16.85;71.04;101498.77;106708;1260;125055;-86
2023/06/15 05:40:02;;;;;;;;;;;;;;;16.80;71.05;101505.94;106792;1260;72667;-86
2023/06/15 05:42:49;;;;;;;;;;;;;;;;;;;;;
2023/06/15 05:45:33;;;;;;;;;;;;;;;16.74;71.34;101551.26;106793;1265;61151;-88
2023/06/15 05:51:38;;;;;;;;;;;;;;;16.62;71.34;101587.42;106759;1267;67171;-87
2023/06/15 05:54:29;;;;;;;;;;;;;;;16.58;71.55;101579.58;107013;1264;125496;-86
2023/06/15 05:57:01;;;;;;;;;;;;;;;16.60;71.85;101569.86;106589;1267;61170;-87
2023/06/15 05:59:34;;;;;;;;;;;;;;;16.62;71.91;101575.20;106558;1264;59981;-87
2023/06/15 06:02:02;;;;;;;;;;;;;;;16.60;71.77;101572.52;106420;1265;126266;-87
2023/06/15 06:04:37;;;;;;;;;;;;;;;16.56;71.89;101560.07;106548;1264;67414;-86
2023/06/15 06:07:22;;;;;;;;;;;;;;;16.54;71.87;101540.02;106415;1266;125306;-87
2023/06/15 06:10:04;;;;;;;;;;;;;;;16.50;71.90;101537.85;106445;1265;60615;-86
2023/06/15 06:12:46;;;;;;;;;;;;;;;16.46;71.94;101545.05;106260;1265;125256;-86
2023/06/15 06:15:19;;;;;;;;;;;;;;;16.44;72.12;101536.00;106392;1266;74797;-86
2023/06/15 06:17:58;;;;;;;;;;;;;;;16.44;72.01;101522.17;106956;1260;66941;-87
2023/06/15 06:20:31;;;;;;;;;;;;;;;16.40;72.03;101516.63;107206;1261;124997;-86
2023/06/15 06:23:20;;;;;;;;;;;;;;;16.34;72.00;101514.06;106684;1262;61282;-87
2023/06/15 06:25:48;;;;;;;;;;;;;;;16.31;72.15;101516.85;106554;1260;125170;-87
2023/06/15 06:28:14;;;;;;;;;;;;;;;16.28;72.05;101518.42;106746;1261;74769;-86
2023/06/15 06:30:45;;;;;;;;;;;;;;;16.26;72.13;101522.10;106545;1261;124958;-88
2023/06/15 06:33:12;;;;;;;;;;;;;;;16.26;72.12;101524.04;106963;1260;72802;-87
2023/06/15 06:35:39;;;;;;;;;;;;;;;16.24;72.15;101521.36;106988;1261;61460;-88
2023/06/15 06:38:06;;;;;;;;;;;;;;;16.26;72.13;101519.44;106810;1260;124436;-85
2023/06/15 06:40:47;;;;;;;;;;;;;;;16.28;72.26;101513.98;106709;1260;74462;-86
2023/06/15 06:43:13;;;;;;;;;;;;;;;16.30;72.24;101509.92;106888;1262;124638;-86
2023/06/15 06:45:40;;;;;;;;;;;;;;;16.31;72.30;101514.91;107037;1261;60012;-86
2023/06/15 06:48:08;;;;;;;;;;;;;;;16.35;72.32;101512.83;106899;1260;59698;-87
2023/06/15 06:50:35;;;;;;;;;;;;;;;16.40;72.12;101508.30;106924;1261;124457;-87
2023/06/15 06:53:14;;;;;;;;;;;;;;;16.44;72.02;101501.27;106931;1262;74757;-88
2023/06/15 06:55:44;;;;;;;;;;;;;;;16.49;72.17;101489.83;106877;1260;125345;-88
2023/06/15 06:58:19;;;;;;;;;;;;;;;16.54;71.98;101483.50;106982;1260;72521;-87
2023/06/15 07:00:48;;;;;;;;;;;;;;;16.61;71.99;101484.98;106827;1262;125371;-87
2023/06/15 07:03:33;;;;;;;;;;;;;;;16.65;72.05;101483.45;106995;1260;61230;-88
2023/06/15 07:06:12;;;;;;;;;;;;;;;16.84;72.23;101479.25;106749;1265;73225;-87
2023/06/15 07:08:50;;;;;;;;;;;;;;;17.12;72.23;101472.45;106833;1261;65542;-88
2023/06/15 07:11:23;;;;;;;;;;;;;;;17.41;71.99;101460.30;106970;1262;72239;-88
2023/06/15 07:14:03;;;;;;;;;;;;;;;17.74;71.84;101451.69;106840;1261;125307;-86
2023/06/15 07:16:31;;;;;;;;;;;;;;;18.13;71.35;101448.55;106993;1261;61196;-87
2023/06/15 07:19:06;;;;;;;;;;;;;;;18.50;71.10;101450.67;106819;1261;125410;-88
2023/06/15 07:21:41;;;;;;;;;;;;;;;19.00;70.61;101443.17;107062;1262;65608;-89
2023/06/15 07:24:11;;;;;;;;;;;;;;;19.53;70.12;101442.30;106568;1261;71758;-87
2023/06/15 07:27:13;;;;;;;;;;;;;;;20.03;69.26;101444.72;106550;1262;60179;-87
2023/06/15 07:29:45;;;;;;;;;;;;;;;20.41;68.07;101437.80;106882;1261;60758;-88
2023/06/15 07:32:24;;;;;;;;;;;;;;;20.64;67.52;101432.19;107132;1263;124477;-87
2023/06/15 07:34:51;;;;;;;;;;;;;;;20.70;66.60;101430.20;106916;1261;65828;-88
2023/06/15 07:37:25;;;;;;;;;;;;;;;20.62;66.16;101429.88;107036;1262;124320;-87
2023/06/15 07:40:00;;;;;;;;;;;;;;;20.54;66.09;101432.73;106868;1260;61262;-87
2023/06/15 07:42:29;;;;;;;;;;;;;;;20.52;65.78;101432.58;106787;1261;124917;-87
2023/06/15 07:44:55;;;;;;;;;;;;;;;20.58;65.76;101432.89;107136;1260;74337;-87
2023/06/15 07:47:24;;;;;;;;;;;;;;;20.63;65.48;101437.19;107436;1261;59765;-87
2023/06/15 07:49:50;;;;;;;;;;;;;;;20.76;65.13;101434.44;107244;1261;123366;-86
2023/06/15 07:52:19;;;;;;;;;;;;;;;20.97;65.12;101434.30;107210;1260;61260;-87
2023/06/15 07:55:05;;;;;;;;;;;;;;;21.19;64.63;101434.14;107122;1261;124900;-87
2023/06/15 07:57:32;;;;;;;;;;;;;;;21.47;64.46;101439.80;107212;1260;74714;-88
2023/06/15 08:00:00;;;;;;;;;;;;;;;21.69;64.03;101440.48;107024;1262;60546;-88
2023/06/15 08:02:49;;;;;;;;;;;;;;;21.70;62.75;101442.09;106916;1261;124596;-88
2023/06/15 08:05:16;;;;;;;;;;;;;;;21.40;62.12;101447.89;107168;1260;61272;-88
2023/06/15 08:07:49;;;;;;;;;;;;;;;21.32;62.10;101447.06;106970;1260;124482;-87
2023/06/15 08:10:17;;;;;;;;;;;;;;;21.20;61.81;101437.15;107183;1261;74678;-87
2023/06/15 08:12:45;;;;;;;;;;;;;;;21.34;62.45;101429.90;106883;1262;124769;-87
2023/06/15 08:15:11;;;;;;;;;;;;;;;21.71;62.50;101424.23;106952;1261;72767;-87
2023/06/15 08:17:44;;;;;;;;;;;;;;;22.09;61.86;101420.95;107127;1261;59390;-88
2023/06/15 08:20:28;;;;;;;;;;;;;;;22.27;60.64;101420.56;106954;1261;124474;-88
2023/06/15 08:22:54;;;;;;;;;;;;;;;22.12;59.85;101419.10;107175;1261;74619;-88
2023/06/15 08:25:21;;;;;;;;;;;;;;;22.09;59.71;101419.86;106847;1262;125019;-88
2023/06/15 08:27:47;;;;;;;;;;;;;;;22.13;59.22;101416.07;106783;1261;71641;-88
2023/06/15 08:30:41;;;;;;;;;;;;;;;21.96;58.10;101419.48;106719;1261;124983;-88
2023/06/15 08:33:18;;;;;;;;;;;;;;;21.72;57.89;101415.46;107215;1260;61436;-88
2023/06/15 08:36:03;;;;;;;;;;;;;;;21.61;58.08;101416.64;107130;1262;73456;-88
2023/06/15 08:38:31;;;;;;;;;;;;;;;21.54;58.14;101414.39;107050;1262;124229;-88
2023/06/15 08:40:57;;;;;;;;;;;;;;;21.50;58.18;101417.11;107061;1259;71314;-87
2023/06/15 08:43:24;;;;;;;;;;;;;;;21.47;58.52;101419.46;106952;1262;61350;-87
2023/06/15 08:45:57;;;;;;;;;;;;;;;21.47;58.43;101422.67;107024;1261;60432;-87
2023/06/15 08:48:23;;;;;;;;;;;;;;;21.46;58.36;101426.25;107169;1262;74749;-86
2023/06/15 08:50:57;;;;;;;;;;;;;;;21.31;57.74;101423.85;106952;1262;60349;-86
2023/06/15 08:53:52;;;;;;;;;;;;;;;21.06;57.76;101415.67;107292;1260;71247;-86
2023/06/15 08:56:19;;;;;;;;;;;;;;;20.95;57.82;101411.13;107042;1264;124300;-86
2023/06/15 08:58:49;;;;;;;;;;;;;;;20.89;57.78;101408.11;106816;1262;308546;-86
2023/06/15 09:01:21;;;;;;;;;;;;;;;20.96;57.87;101398.61;106802;1265;124629;-86
2023/06/15 09:03:48;;;;;;;;;;;;;;;21.12;57.80;101397.06;106786;1262;67156;-87
2023/06/15 09:06:22;;;;;;;;;;;;;;;21.36;57.69;101395.44;106622;1263;72731;-86
2023/06/15 09:08:48;;;;;;;;;;;;;;;21.57;56.93;101397.41;106861;1261;60803;-86
2023/06/15 09:11:22;;;;;;;;;;;;;;;21.66;56.56;101394.45;106839;1261;60287;-86
2023/06/15 09:13:58;;;;;;;;;;;;;;;21.85;56.55;101405.14;106402;1260;124781;-86
2023/06/15 09:16:24;;;;;;;;;;;;;;;21.94;56.05;101409.14;106774;1262;67024;-86
2023/06/15 09:18:52;;;;;;;;;;;;;;;21.95;55.86;101405.02;106714;1261;124479;-86
2023/06/15 09:21:32;;;;;;;;;;;;;;;21.93;55.48;101408.08;107015;1261;60096;-87
2023/06/15 09:24:04;;;;;;;;;;;;;;;21.83;55.14;101409.10;107036;1260;59313;-86
2023/06/15 09:26:32;;;;;;;;;;;;;;;21.71;54.90;101405.29;106962;1261;124330;-86
2023/06/15 09:29:07;;;;;;;;;;;;;;;21.73;55.12;101409.73;107034;1262;65668;-85
2023/06/15 09:31:41;;;;;;;;;;;;;;;21.75;54.63;101411.50;106807;1261;125004;-87
2023/06/15 09:34:08;;;;;;;;;;;;;;;21.64;54.37;101418.40;106908;1261;59544;-87
2023/06/15 09:36:44;;;;;;;;;;;;;;;21.54;54.42;101417.42;106898;1262;123410;-87
2023/06/15 09:39:30;;;;;;;;;;;;;;;21.50;54.44;101419.79;107080;1267;74776;-86
2023/06/15 09:42:09;;;;;;;;;;;;;;;21.32;53.81;101421.17;107020;1261;65763;-87
2023/06/15 09:44:40;;;;;;;;;;;;;;;21.21;53.95;101420.02;107064;1261;125213;-86
2023/06/15 09:47:18;;;;;;;;;;;;;;;21.21;53.93;101413.78;107155;1261;59984;-88
2023/06/15 09:49:59;;;;;;;;;;;;;;;21.39;53.77;101413.43;107049;1262;124491;-86
2023/06/15 09:52:27;;;;;;;;;;;;;;;21.44;53.54;101408.41;106876;1262;73397;-86
2023/06/15 09:55:05;;;;;;;;;;;;;;;21.75;53.85;101402.92;106646;1262;124704;-87
2023/06/15 09:57:45;;;;;;;;;;;;;;;22.23;53.71;101405.22;107018;1262;72560;-87
2023/06/15 10:00:12;;;;;;;;;;;;;;;22.56;52.99;101400.33;107298;1260;60335;-86
2023/06/15 10:02:38;;;;;;;;;;;;;;;22.73;52.72;101394.54;106995;1261;124436;-87
2023/06/15 10:05:14;;;;;;;;;;;;;;;22.97;52.29;101387.54;106797;1262;74501;-87
2023/06/15 10:07:51;;;;;;;;;;;;;;;23.02;51.85;101379.94;106848;1261;124965;-86
2023/06/15 10:10:17;;;;;;;;;;;;;;;22.99;50.79;101387.35;106959;1261;73330;-87
2023/06/15 10:12:44;;;;;;;;;;;;;;;22.74;50.78;101383.42;106979;1262;124727;-87
2023/06/15 10:15:12;;;;;;;;;;;;;;;22.73;50.91;101387.73;106954;1260;60512;-86
2023/06/15 10:17:47;;;;;;;;;;;;;;;22.65;50.58;101399.48;106971;1261;74667;-86
2023/06/15 10:20:21;;;;;;;;;;;;;;;22.66;50.76;101397.85;106894;1262;125095;-86
2023/06/15 10:25:55;;;;;;;;;;;;;;;23.00;50.78;101390.36;106669;1262;124447;-87
2023/06/15 10:28:30;;;;;;;;;;;;;;;23.02;50.19;101396.44;106737;1267;59444;-87
2023/06/15 10:34:47;;;;;;;;;;;;;;;22.52;50.68;101403.97;106765;1262;67058;-87
2023/06/15 10:40:24;;;;;;;;;;;;;;;22.46;50.71;101403.16;107054;1261;61742;-88
2023/06/15 10:43:13;;;;;;;;;;;;;;;22.45;50.95;101407.29;106799;1261;124496;-88
2023/06/15 10:45:43;;;;;;;;;;;;;;;22.37;50.81;101406.86;107052;1262;75045;-87
2023/06/15 10:48:10;;;;;;;;;;;;;;;22.36;50.97;101402.58;106941;1260;67046;-88
2023/06/15 10:50:50;;;;;;;;;;;;;;;22.42;51.07;101401.61;106701;1261;125079;-88
2023/06/15 10:53:29;;;;;;;;;;;;;;;22.48;50.93;101402.23;106942;1261;61272;-88
2023/06/15 10:55:56;;;;;;;;;;;;;;;22.58;51.16;101400.66;106841;1262;124419;-87
2023/06/15 10:58:22;;;;;;;;;;;;;;;22.75;51.03;101395.23;106921;1262;74608;-87
2023/06/15 11:01:15;;;;;;;;;;;;;;;22.80;50.78;101398.55;106787;1262;125521;-88
2023/06/15 11:04:01;;;;;;;;;;;;;;;22.88;50.94;101395.02;107058;1262;72734;-87
2023/06/15 11:06:37;;;;;;;;;;;;;;;22.96;50.69;101392.92;106944;1262;124637;-88
2023/06/15 11:09:03;;;;;;;;;;;;;;;22.91;50.38;101391.58;106784;1262;60195;-88
2023/06/15 11:11:39;;;;;;;;;;;;;;;22.91;50.74;101392.64;106701;1260;60432;-87
2023/06/15 11:14:06;;;;;;;;;;;;;;;23.08;50.62;101392.22;106540;1262;124433;-87
2023/06/15 11:16:33;;;;;;;;;;;;;;;23.19;50.64;101391.67;106657;1260;72599;-88
2023/06/15 11:22:27;;;;;;;;;;;;;;;23.18;50.03;101387.95;106779;1262;61395;-88
2023/06/15 11:25:16;;;;;;;;;;;;;;;23.00;49.99;101386.96;106729;1262;124506;-86
2023/06/15 11:28:00;;;;;;;;;;;;;;;22.95;50.42;101381.68;106884;1262;66442;-88
2023/06/15 11:30:27;;;;;;;;;;;;;;;23.11;50.55;101382.33;107001;1261;124987;-90
2023/06/15 11:33:28;;;;;;;;;;;;;;;23.09;50.17;101386.65;107117;1261;61368;-89
2023/06/15 11:36:03;;;;;;;;;;;;;;;22.93;50.10;101381.88;107199;1261;60261;-88
2023/06/15 11:38:30;;;;;;;;;;;;;;;22.80;50.18;101386.73;107019;1262;124352;-87
2023/06/15 11:41:03;;;;;;;;;;;;;;;22.74;50.52;101390.23;106948;1263;65868;-88
2023/06/15 11:43:42;;;;;;;;;;;;;;;22.79;50.59;101396.78;106845;1266;124335;-87
2023/06/15 11:46:09;;;;;;;;;;;;;;;22.66;50.76;101393.38;107053;1264;61148;-89
2023/06/15 11:48:38;;;;;;;;;;;;;;;22.55;50.83;101399.63;107005;1260;124647;-88
2023/06/15 11:51:10;;;;;;;;;;;;;;;22.35;50.90;101392.22;107212;1261;74388;-89
2023/06/15 11:53:39;;;;;;;;;;;;;;;22.29;51.31;101391.23;107051;1262;65642;-88
2023/06/15 11:56:15;;;;;;;;;;;;;;;22.29;51.38;101397.30;107078;1261;124388;-89
2023/06/15 11:58:46;;;;;;;;;;;;;;;22.25;51.39;101404.85;107096;1267;59270;-88
2023/06/15 12:01:31;;;;;;;;;;;;;;;22.05;51.44;101404.36;106949;1260;123300;-88
2023/06/15 12:04:06;;;;;;;;;;;;;;;21.84;51.60;101402.29;107043;1266;72345;-88
2023/06/15 12:06:45;;;;;;;;;;;;;;;21.58;51.87;101396.13;107148;1261;124734;-88
2023/06/15 12:09:27;;;;;;;;;;;;;;;21.46;52.20;101395.55;107129;1262;73253;-88
2023/06/15 12:12:13;;;;;;;;;;;;;;;21.42;52.57;101400.01;107033;1260;61311;-88
2023/06/15 12:14:41;;;;;;;;;;;;;;;21.34;52.51;101399.19;107040;1261;124224;-89
2023/06/15 12:17:16;;;;;;;;;;;;;;;21.33;52.65;101400.09;107156;1264;74403;-88
2023/06/15 12:22:51;;;;;;;;;;;;;;;21.42;52.83;101397.69;106817;1261;72454;-90
2023/06/15 12:25:18;;;;;;;;;;;;;;;21.40;52.77;101396.64;106792;1261;124516;-89
2023/06/15 12:27:51;;;;;;;;;;;;;;;21.44;52.70;101397.69;106722;1262;60292;-89
2023/06/15 12:30:28;;;;;;;;;;;;;;;21.34;52.58;101402.77;107045;1262;74479;-88
2023/06/15 12:33:21;;;;;;;;;;;;;;;21.21;52.52;101402.52;106856;1262;67159;-88
2023/06/15 12:36:00;;;;;;;;;;;;;;;21.07;52.80;101398.53;106959;1262;72617;-88
2023/06/15 12:38:38;;;;;;;;;;;;;;;20.87;52.93;101392.62;106813;1261;124388;-87
2023/06/15 12:41:08;;;;;;;;;;;;;;;20.78;53.20;101386.08;106850;1265;61128;-86
2023/06/15 12:43:34;;;;;;;;;;;;;;;20.72;53.22;101384.16;106692;1262;124266;-86
2023/06/15 12:46:00;;;;;;;;;;;;;;;20.78;53.58;101380.91;106756;1265;61038;-86
2023/06/15 12:48:33;;;;;;;;;;;;;;;21.03;53.71;101379.66;106670;1261;62503;-87
2023/06/15 12:51:18;;;;;;;;;;;;;;;21.15;53.62;101371.52;106678;1260;59961;-87
2023/06/15 12:53:50;;;;;;;;;;;;;;;21.35;53.63;101364.73;106626;1262;61150;-87
2023/06/15 12:56:18;;;;;;;;;;;;;;;21.45;53.36;101368.95;106765;1264;124873;-87
2023/06/15 12:58:46;;;;;;;;;;;;;;;21.42;53.47;101359.49;107109;1264;66921;-87
2023/06/15 13:04:14;;;;;;;;;;;;;;;21.51;53.55;101360.66;106959;1261;61411;-88
2023/06/15 13:06:40;;;;;;;;;;;;;;;21.50;53.44;101358.35;107057;1262;61897;-87
2023/06/15 13:09:09;;;;;;;;;;;;;;;21.44;53.47;101356.27;106971;1262;59944;-87
2023/06/15 13:11:37;;;;;;;;;;;;;;;21.39;53.48;101351.48;106991;1265;65569;-87
2023/06/15 13:14:16;;;;;;;;;;;;;;;21.41;53.61;101342.72;106875;1260;71448;-87
2023/06/15 13:16:42;;;;;;;;;;;;;;;21.49;53.62;101339.45;106988;1261;61385;-86
2023/06/15 13:19:10;;;;;;;;;;;;;;;21.48;53.63;101336.23;106810;1260;60043;-88
2023/06/15 13:21:36;;;;;;;;;;;;;;;21.62;53.71;101337.52;106640;1260;74450;-87